Currently 59°F in Temecula, California, USA
59°F
65°F / 59°F
calm
0.00"
Monday, August 10, 2020 5:14 AM PDT

Temecula, California Weather Summary
Last 36 Hours

Temperature Winds Hourly Humidity Dewpoint
Time Report Norm Report Norm Max Gusts Precip. Rpt. Norm Rpt. Norm Pressure
1Mon 05:14 AM  59.5°F  63°F  calm  calm  2 mph  0.00"  97%  87%  58°F  59°F  29.94"
3Mon 05:13 AM  59.5°F  63°F  calm  calm  3 mph  ----  97%  87%  58°F  59°F  29.94"
Mon 05:00 AM  59.8°F  63°F  1 mph S  calm  5 mph  0.00"  97%  87%  59°F  59°F  29.94"
Mon 04:00 AM  60.6°F  64°F  3 mph S  calm  7 mph  0.00"  96%  86%  59°F  59°F  29.94"
Mon 03:00 AM  60.8°F  64°F  3 mph S  calm  5 mph  0.00"  93%  85%  59°F  60°F  29.93"
Mon 02:00 AM  61.7°F  65°F  3 mph S  1 mph  7 mph  0.00"  91%  83%  59°F  60°F  29.92"
Mon 01:00 AM  63.8°F  66°F  3 mph S  1 mph  6 mph  0.00"  89%  82%  60°F  60°F  29.92"
2Mon 12:00 AM  65.1°F  67°F  4 mph S  1 mph  7 mph  0.00"  87%  79%  61°F  60°F  29.93"
Sun 11:00 PM  67.8°F  68°F  2 mph SE  1 mph  6 mph  0.00"  80%  76%  61°F  60°F  29.92"
Sun 10:00 PM  70.1°F  70°F  2 mph S  2 mph  6 mph  0.00"  73%  72%  61°F  60°F  29.91"
Sun 09:00 PM  73.1°F  72°F  calm  3 mph  8 mph  0.00"  64%  67%  60°F  60°F  29.89"
Sun 08:00 PM  78.2°F  76°F  2 mph SW  4 mph  13 mph  0.00"  52%  58%  59°F  59°F  29.87"
Sun 07:00 PM  84.8°F  80°F  6 mph SW  6 mph  12 mph  0.00"  42%  49%  59°F  59°F  29.85"
Sun 06:00 PM  89.4°F  84°F  2 mph SW  7 mph  14 mph  0.00"  29%  43%  52°F  58°F  29.86"
Sun 05:00 PM  89.4°F  87°F  4 mph W  9 mph  14 mph  0.00"  27%  38%  50°F  58°F  29.86"
Sun 04:00 PM  87.5°F  89°F  9 mph SW  9 mph  19 mph  0.00"  31%  35%  53°F  57°F  29.85"
Sun 03:00 PM  90.4°F  90°F  8 mph SW  9 mph  18 mph  0.00"  28%  34%  52°F  57°F  29.87"
Sun 02:00 PM  91.5°F  90°F  5 mph SW  9 mph  14 mph  0.00"  33%  34%  57°F  57°F  29.90"
Sun 01:00 PM  89.5°F  89°F  4 mph SW  8 mph  12 mph  0.00"  30%  36%  53°F  57°F  29.91"
Sun 12:00 PM  87.0°F  87°F  5 mph S  6 mph  10 mph  0.00"  38%  40%  58°F  58°F  29.94"
Sun 11:00 AM  82.1°F  82°F  4 mph W  4 mph  7 mph  0.00"  50%  49%  61°F  60°F  29.95"
Sun 10:00 AM  74.7°F  75°F  calm  2 mph  4 mph  0.00"  59%  61%  59°F  61°F  29.96"
Sun 09:00 AM  67.4°F  69°F  calm  1 mph  none  0.00"  74%  75%  59°F  60°F  29.97"
Sun 08:00 AM  61.8°F  64°F  calm  calm  none  0.00"  88%  85%  58°F  60°F  29.98"
Sun 07:00 AM  58.5°F  62°F  calm  calm  none  0.00"  94%  88%  57°F  59°F  29.97"
Sun 06:00 AM  58.0°F  62°F  calm  calm  none  0.00"  93%  88%  56°F  59°F  29.96"
Sun 05:00 AM  59.0°F  63°F  calm  calm  none  0.00"  93%  87%  57°F  59°F  29.95"
Sun 04:00 AM  59.8°F  64°F  calm  calm  5 mph  0.00"  94%  86%  58°F  59°F  29.95"
Sun 03:00 AM  61.5°F  64°F  3 mph S  calm  6 mph  0.00"  93%  85%  59°F  59°F  29.94"
Sun 02:00 AM  63.2°F  65°F  4 mph S  1 mph  6 mph  0.00"  89%  83%  60°F  60°F  29.94"
Sun 01:00 AM  64.1°F  66°F  1 mph S  1 mph  5 mph  0.00"  89%  82%  61°F  60°F  29.94"
Sun 12:00 AM  65.6°F  67°F  1 mph S  1 mph  5 mph  0.00"  82%  79%  60°F  60°F  29.95"
Sat 11:00 PM  67.6°F  68°F  calm  1 mph  6 mph  0.00"  77%  77%  60°F  60°F  29.95"
Sat 10:00 PM  69.4°F  70°F  3 mph SE  2 mph  6 mph  0.00"  75%  72%  61°F  60°F  29.95"
Sat 09:00 PM  72.0°F  72°F  1 mph S  3 mph  8 mph  0.00"  70%  67%  61°F  60°F  29.93"
Sat 08:00 PM  77.2°F  75°F  4 mph SE  4 mph  13 mph  0.00"  57%  58%  60°F  59°F  29.90"
Sat 07:00 PM  82.5°F  80°F  5 mph SW  6 mph  15 mph  0.00"  48%  49%  60°F  59°F  29.87"
Sat 06:00 PM  88.3°F  84°F  5 mph SW  7 mph  10 mph  0.00"  37%  43%  58°F  58°F  29.89"

  1. Current weather data. No green row appears if the current weather data is also the high or low for the current day.
  2. High temperature for the current day.
  3. Low temperature for the current day.

The Temecula weather pages are a service of WeatherCurrents. Temecula, California is located in the Temecula Valley, in southwestern Riverside County, along the Interstate 15 highway. The Temecula Valley's rolling hills are home to the Temecula wine country, vineyards, golf courses, a casino resort, and Old Town Temecula.
Copyright ©2020  WeatherCurrents. All rights reserved. - Submit questions and comments - Privacy Policy

This page automatically refreshes every 10 minutes.